createdAt,value
2022-12-19T00:03:07.237Z,-6.90
2022-12-19T00:06:16.271Z,-6.89
2022-12-19T00:09:22.738Z,-6.86
2022-12-19T00:12:28.204Z,-6.88
2022-12-19T00:15:37.270Z,-6.99
2022-12-19T00:18:43.268Z,-7.00
2022-12-19T00:21:52.337Z,-7.06
2022-12-19T00:24:59.912Z,-7.11
2022-12-19T00:28:10.312Z,-7.19
2022-12-19T00:31:16.928Z,-7.24
2022-12-19T00:34:23.565Z,-7.22
2022-12-19T00:37:31.561Z,-7.27
2022-12-19T00:40:38.849Z,-7.31
2022-12-19T00:43:47.525Z,-7.36
2022-12-19T00:46:53.935Z,-7.41
2022-12-19T00:49:59.700Z,-7.47
2022-12-19T00:53:08.615Z,-7.52
2022-12-19T00:56:18.450Z,-7.55
2022-12-19T00:59:26.667Z,-7.54
2022-12-19T01:02:35.167Z,-7.49
2022-12-19T01:05:42.136Z,-7.43
2022-12-19T01:08:51.486Z,-7.38
2022-12-19T01:12:12.040Z,-7.32
2022-12-19T01:15:23.105Z,-7.39
2022-12-19T01:18:30.124Z,-7.38
2022-12-19T01:21:39.866Z,-7.42
2022-12-19T01:24:48.834Z,-7.45
2022-12-19T01:27:57.670Z,-7.47
2022-12-19T01:31:04.025Z,-7.55
2022-12-19T01:34:11.949Z,-7.60
2022-12-19T01:37:19.573Z,-7.64
2022-12-19T01:40:27.763Z,-7.75
2022-12-19T01:43:56.780Z,-7.85
2022-12-19T01:47:03.998Z,-7.94
2022-12-19T01:50:21.864Z,-7.96
2022-12-19T01:53:49.198Z,-7.98
2022-12-19T01:57:02.861Z,-7.99
2022-12-19T02:00:12.742Z,-8.02
2022-12-19T02:03:29.672Z,-8.00
2022-12-19T02:06:38.330Z,-8.00
2022-12-19T02:09:47.573Z,-7.99
2022-12-19T02:13:02.827Z,-8.00
2022-12-19T02:16:30.158Z,-8.06
2022-12-19T02:20:27.819Z,-8.09
2022-12-19T02:24:36.495Z,-8.16
2022-12-19T02:28:27.116Z,-8.30
2022-12-19T02:31:46.596Z,-8.32
2022-12-19T02:35:07.404Z,-8.34
2022-12-19T02:38:27.929Z,-8.33
2022-12-19T02:41:46.058Z,-8.41
2022-12-19T02:45:02.176Z,-8.35
2022-12-19T02:48:17.628Z,-8.28
2022-12-19T02:51:25.735Z,-8.25
2022-12-19T02:54:31.601Z,-8.19
2022-12-19T02:58:13.608Z,-8.21
2022-12-19T03:01:45.889Z,-8.20
2022-12-19T03:05:13.178Z,-8.24
2022-12-19T03:08:31.622Z,-8.22
2022-12-19T03:11:44.892Z,-8.21
2022-12-19T03:14:54.369Z,-8.21
2022-12-19T03:18:03.587Z,-8.17
2022-12-19T03:21:23.812Z,-8.09
2022-12-19T03:24:30.593Z,-8.02
2022-12-19T03:27:42.466Z,-7.97
2022-12-19T03:30:52.118Z,-7.95
2022-12-19T03:34:09.225Z,-7.99
2022-12-19T03:37:25.321Z,-7.93
2022-12-19T03:40:36.047Z,-7.94
2022-12-19T03:43:44.306Z,-7.90
2022-12-19T03:47:03.053Z,-7.90
2022-12-19T03:50:12.373Z,-7.90
2022-12-19T03:53:42.076Z,-7.91
2022-12-19T03:56:59.295Z,-8.00
2022-12-19T04:00:13.561Z,-7.99
2022-12-19T04:03:22.159Z,-8.00
2022-12-19T04:06:34.694Z,-8.11
2022-12-19T04:09:50.418Z,-8.18
2022-12-19T04:13:08.751Z,-8.20
2022-12-19T04:16:26.642Z,-8.22
2022-12-19T04:19:43.953Z,-8.23
2022-12-19T04:23:01.526Z,-8.31
2022-12-19T04:26:13.846Z,-8.35
2022-12-19T04:29:23.280Z,-8.31
2022-12-19T04:32:32.817Z,-8.34
2022-12-19T04:35:38.975Z,-8.39
2022-12-19T04:38:45.715Z,-8.38
2022-12-19T04:41:54.319Z,-8.47
2022-12-19T04:45:01.198Z,-8.51
2022-12-19T04:48:08.017Z,-8.59
2022-12-19T04:51:15.243Z,-8.63
2022-12-19T04:54:20.967Z,-8.69
2022-12-19T04:57:32.311Z,-8.75
2022-12-19T05:00:37.946Z,-8.87
2022-12-19T05:03:52.693Z,-8.87
2022-12-19T05:07:00.462Z,-8.87
2022-12-19T05:10:08.963Z,-8.88
2022-12-19T05:13:16.992Z,-8.88
2022-12-19T05:16:23.448Z,-8.89
2022-12-19T05:19:29.320Z,-8.94
2022-12-19T05:22:38.189Z,-8.99
2022-12-19T05:25:43.846Z,-9.07
2022-12-19T05:28:53.365Z,-9.01
2022-12-19T05:31:58.881Z,-9.06
2022-12-19T05:35:05.517Z,-9.09
2022-12-19T05:38:11.160Z,-9.01
2022-12-19T05:41:20.233Z,-8.98
2022-12-19T05:44:28.946Z,-8.96
2022-12-19T05:47:35.253Z,-9.02
2022-12-19T05:50:41.269Z,-9.04
2022-12-19T05:53:51.042Z,-9.09
2022-12-19T05:56:56.627Z,-9.09
2022-12-19T06:00:09.421Z,-9.19
2022-12-19T06:03:17.911Z,-9.22
2022-12-19T06:06:27.486Z,-9.26
2022-12-19T06:09:33.159Z,-9.29
2022-12-19T06:12:39.593Z,-9.33
2022-12-19T06:15:47.678Z,-9.40
2022-12-19T06:18:54.154Z,-9.45
2022-12-19T06:21:59.702Z,-9.39
2022-12-19T06:25:06.079Z,-9.31
2022-12-19T06:28:11.557Z,-9.27
2022-12-19T06:31:24.897Z,-9.26
2022-12-19T06:35:02.204Z,-9.28
2022-12-19T06:38:00.892Z,-9.27
2022-12-19T06:41:20.194Z,-9.39
2022-12-19T06:44:26.574Z,-9.48
2022-12-19T06:47:34.786Z,-9.65
2022-12-19T06:50:41.102Z,-9.92
2022-12-19T06:53:46.617Z,-9.90
2022-12-19T06:56:53.002Z,-9.80
2022-12-19T06:59:58.672Z,-9.78
2022-12-19T07:03:16.341Z,-9.91
2022-12-19T07:06:21.865Z,-9.91
2022-12-19T07:09:31.483Z,-9.97
2022-12-19T07:12:37.042Z,-9.85
2022-12-19T07:15:44.230Z,-9.74
2022-12-19T07:18:52.411Z,-9.71
2022-12-19T07:22:00.273Z,-9.68
2022-12-19T07:25:09.298Z,-9.87
2022-12-19T07:28:17.125Z,-9.78
2022-12-19T07:32:17.699Z,-9.74
2022-12-19T07:35:29.406Z,-9.71
2022-12-19T07:38:37.323Z,-9.68
2022-12-19T07:41:43.546Z,-9.58
2022-12-19T07:44:48.927Z,-9.49
2022-12-19T07:47:55.249Z,-9.35
2022-12-19T07:51:08.675Z,-9.13
2022-12-19T07:54:15.422Z,-8.81
2022-12-19T07:57:20.953Z,-8.61
2022-12-19T08:00:27.491Z,-8.54
2022-12-19T08:03:36.436Z,-8.41
2022-12-19T08:06:46.144Z,-8.48
2022-12-19T08:09:51.720Z,-8.48
2022-12-19T08:12:58.085Z,-8.54
2022-12-19T08:16:03.927Z,-8.44
2022-12-19T08:19:10.262Z,-8.46
2022-12-19T08:22:18.451Z,-8.34
2022-12-19T08:25:24.878Z,-8.38
2022-12-19T08:28:30.563Z,-8.39
2022-12-19T08:31:36.913Z,-8.35
2022-12-19T08:34:43.692Z,-8.22
2022-12-19T08:37:52.888Z,-8.06
2022-12-19T08:41:03.296Z,-7.88
2022-12-19T08:44:10.023Z,-7.75
2022-12-19T08:47:18.419Z,-7.65
2022-12-19T08:50:25.503Z,-7.62
2022-12-19T08:53:37.211Z,-7.55
2022-12-19T08:56:46.013Z,-7.46
2022-12-19T08:59:53.927Z,-7.34
2022-12-19T09:03:05.833Z,-7.20
2022-12-19T09:06:18.954Z,-7.09
2022-12-19T09:09:32.803Z,-7.01
2022-12-19T09:12:38.499Z,-6.88
2022-12-19T09:15:44.981Z,-6.86
2022-12-19T09:18:57.175Z,-6.80
2022-12-19T09:22:03.808Z,-6.69
2022-12-19T09:25:13.774Z,-6.65
2022-12-19T09:28:28.005Z,-6.46
2022-12-19T09:31:33.830Z,-6.40
2022-12-19T09:34:40.480Z,-6.21
2022-12-19T09:37:46.064Z,-6.07
2022-12-19T09:41:43.550Z,-5.92
2022-12-19T09:45:14.615Z,-5.68
2022-12-19T09:48:27.955Z,-5.54
2022-12-19T09:51:43.413Z,-5.28
2022-12-19T09:54:59.651Z,-5.35
2022-12-19T09:58:16.890Z,-5.21
2022-12-19T10:01:33.679Z,-5.18
2022-12-19T10:04:42.010Z,-5.25
2022-12-19T10:08:07.651Z,-5.31
2022-12-19T10:12:38.374Z,-5.21
2022-12-19T10:15:40.495Z,-5.16
2022-12-19T10:18:57.329Z,-5.06
2022-12-19T10:22:20.992Z,-5.04
2022-12-19T10:25:53.802Z,-4.92
2022-12-19T10:29:45.911Z,-4.86
2022-12-19T10:33:20.026Z,-4.87
2022-12-19T10:36:55.861Z,-4.88
2022-12-19T10:40:27.376Z,-4.88
2022-12-19T10:43:55.482Z,-4.82
2022-12-19T10:47:02.048Z,-4.78
2022-12-19T10:50:24.264Z,-4.67
2022-12-19T10:53:33.961Z,-4.47
2022-12-19T10:56:40.724Z,-4.11
2022-12-19T11:00:02.197Z,-3.54
2022-12-19T11:03:18.925Z,-3.07
2022-12-19T11:06:55.671Z,-2.54
2022-12-19T11:10:38.531Z,-2.00
2022-12-19T11:17:32.552Z,-1.52
2022-12-19T11:21:58.858Z,-1.15
2022-12-19T11:29:36.813Z,-0.84
2022-12-19T11:29:43.288Z,-0.75
2022-12-19T11:30:09.086Z,-0.69
2022-12-19T11:34:53.822Z,-0.93
2022-12-19T11:38:04.926Z,-1.01
2022-12-19T11:41:34.019Z,-1.03
2022-12-19T11:44:55.329Z,-0.99
2022-12-19T11:48:15.793Z,-0.94
2022-12-19T11:51:35.056Z,-0.89
2022-12-19T11:54:58.077Z,-0.84
2022-12-19T11:58:12.720Z,-0.82
2022-12-19T12:01:44.874Z,-0.72
2022-12-19T12:05:22.483Z,-0.84
2022-12-19T12:10:12.836Z,-0.98
2022-12-19T12:22:48.211Z,-1.05
2022-12-19T12:30:45.085Z,-1.14
2022-12-19T12:31:10.968Z,-1.22
2022-12-19T12:31:53.909Z,-1.41
2022-12-19T12:31:56.214Z,-1.29
2022-12-19T12:35:45.382Z,-1.51
2022-12-19T12:39:41.338Z,-1.58
2022-12-19T12:43:07.206Z,-1.66
2022-12-19T12:46:22.801Z,-1.65
2022-12-19T12:49:42.079Z,-1.81
2022-12-19T12:52:55.298Z,-1.68
2022-12-19T12:56:07.191Z,-1.71
2022-12-19T12:59:31.423Z,-1.86
2022-12-19T13:02:38.673Z,-1.95
2022-12-19T13:06:09.859Z,-1.94
2022-12-19T13:09:30.734Z,-1.89
2022-12-19T13:13:09.295Z,-1.89
2022-12-19T13:16:53.334Z,-1.96
2022-12-19T13:20:43.463Z,-1.91
2022-12-19T13:24:16.173Z,-2.02
2022-12-19T13:27:43.773Z,-2.04
2022-12-19T13:31:21.312Z,-2.09
2022-12-19T13:34:45.871Z,-2.27
2022-12-19T13:39:54.909Z,-2.39
2022-12-19T13:42:00.717Z,-2.53
2022-12-19T13:45:16.264Z,-2.72
2022-12-19T13:48:34.062Z,-2.80
2022-12-19T13:52:00.354Z,-2.87
2022-12-19T13:55:06.465Z,-2.75
2022-12-19T13:58:39.682Z,-2.96
2022-12-19T14:01:46.417Z,-2.72
2022-12-19T14:04:53.106Z,-2.73
2022-12-19T14:08:00.443Z,-2.79
2022-12-19T14:11:40.839Z,-2.98
2022-12-19T14:15:13.567Z,-3.01
2022-12-19T14:18:44.685Z,-3.06
2022-12-19T14:22:08.918Z,-3.19
2022-12-19T14:28:14.683Z,-3.14
2022-12-19T14:28:55.262Z,-3.11
2022-12-19T14:33:15.473Z,-3.13
2022-12-19T14:36:11.469Z,-3.27
2022-12-19T14:39:29.400Z,-3.49
2022-12-19T14:43:58.007Z,-3.53
2022-12-19T14:52:34.299Z,-3.62
2022-12-19T14:54:13.502Z,-3.74
2022-12-19T14:54:31.519Z,-4.04
2022-12-19T14:57:01.027Z,-4.21
2022-12-19T15:01:08.564Z,-4.35
2022-12-19T15:04:50.655Z,-4.23
2022-12-19T15:07:49.550Z,-4.01
2022-12-19T15:11:44.607Z,-3.91
2022-12-19T15:14:59.739Z,-3.80
2022-12-19T15:18:22.369Z,-3.75
2022-12-19T15:21:29.941Z,-3.72
2022-12-19T15:24:38.243Z,-3.71
2022-12-19T15:27:48.678Z,-3.67
2022-12-19T15:31:02.713Z,-3.67
2022-12-19T15:34:35.841Z,-3.67
2022-12-19T15:37:44.372Z,-3.67
2022-12-19T15:40:53.462Z,-3.71
2022-12-19T15:44:04.914Z,-3.71
2022-12-19T15:47:29.091Z,-3.88
2022-12-19T15:50:35.703Z,-3.77
2022-12-19T15:53:43.122Z,-3.77
2022-12-19T15:56:56.841Z,-3.76
2022-12-19T16:00:09.641Z,-3.69
2022-12-19T16:03:25.430Z,-3.67
2022-12-19T16:06:32.501Z,-3.66
2022-12-19T16:09:38.286Z,-3.65
2022-12-19T16:12:52.848Z,-3.67
2022-12-19T16:16:00.444Z,-3.72
2022-12-19T16:19:06.919Z,-3.74
2022-12-19T16:22:22.549Z,-3.88
2022-12-19T16:25:38.490Z,-3.95
2022-12-19T16:28:46.772Z,-3.96
2022-12-19T16:31:53.402Z,-3.86
2022-12-19T16:34:59.484Z,-3.80
2022-12-19T16:38:05.744Z,-3.72
2022-12-19T16:41:20.327Z,-3.60
2022-12-19T16:44:29.644Z,-3.41
2022-12-19T16:47:38.339Z,-3.37
2022-12-19T16:50:44.905Z,-3.47
2022-12-19T16:53:53.492Z,-3.17
2022-12-19T16:57:00.999Z,-3.03
2022-12-19T17:00:14.669Z,-2.88
2022-12-19T17:03:36.408Z,-2.81
2022-12-19T17:06:42.113Z,-2.62
2022-12-19T17:09:50.625Z,-2.48
2022-12-19T17:12:57.464Z,-2.34
2022-12-19T17:16:08.290Z,-2.20
2022-12-19T17:19:25.296Z,-2.06
2022-12-19T17:22:31.630Z,-1.98
2022-12-19T17:25:37.311Z,-1.91
2022-12-19T17:28:44.178Z,-1.92
2022-12-19T17:31:52.310Z,-1.85
2022-12-19T17:34:58.842Z,-1.78
2022-12-19T17:38:05.386Z,-1.73
2022-12-19T17:41:19.408Z,-1.61
2022-12-19T17:44:25.014Z,-1.53
2022-12-19T17:47:34.013Z,-1.54
2022-12-19T17:50:43.583Z,-1.45
2022-12-19T17:53:51.484Z,-1.42
2022-12-19T17:56:58.131Z,-1.35
2022-12-19T18:00:04.665Z,-1.29
2022-12-19T18:03:28.872Z,-1.21
2022-12-19T18:06:35.122Z,-1.21
2022-12-19T18:09:40.664Z,-1.23
2022-12-19T18:12:49.988Z,-1.19
2022-12-19T18:16:00.160Z,-1.15
2022-12-19T18:19:10.209Z,-1.16
2022-12-19T18:22:17.182Z,-1.18
2022-12-19T18:25:27.403Z,-1.17
2022-12-19T18:28:33.626Z,-1.10
2022-12-19T18:31:46.527Z,-1.02
2022-12-19T18:34:58.723Z,-0.95
2022-12-19T18:38:10.939Z,-0.88
2022-12-19T18:41:17.071Z,-0.84
2022-12-19T18:44:24.788Z,-0.78
2022-12-19T18:47:30.366Z,-0.73
2022-12-19T18:50:39.388Z,-0.72
2022-12-19T18:53:45.791Z,-0.68
2022-12-19T18:56:52.080Z,-0.71
2022-12-19T18:59:59.159Z,-0.76
2022-12-19T19:03:12.814Z,-0.72
2022-12-19T19:06:26.564Z,-0.69
2022-12-19T19:09:33.623Z,-0.60
2022-12-19T19:13:06.615Z,-0.51
2022-12-19T19:16:22.604Z,-0.45
2022-12-19T19:19:28.480Z,-0.37
2022-12-19T19:22:38.065Z,-0.29
2022-12-19T19:25:43.968Z,-0.27
2022-12-19T19:28:53.007Z,-0.23
2022-12-19T19:31:58.744Z,-0.33
2022-12-19T19:35:12.015Z,-0.34
2022-12-19T19:38:26.416Z,-0.30
2022-12-19T19:41:34.483Z,-0.30
2022-12-19T19:44:39.989Z,-0.28
2022-12-19T19:47:46.780Z,-0.33
2022-12-19T19:50:52.273Z,-0.32
2022-12-19T19:54:01.443Z,-0.29
2022-12-19T19:57:11.092Z,-0.30
2022-12-19T20:00:19.752Z,-0.27
2022-12-19T20:03:26.287Z,-0.23
2022-12-19T20:06:33.408Z,-0.26
2022-12-19T20:09:41.862Z,-0.20
2022-12-19T20:12:48.418Z,-0.20
2022-12-19T20:15:55.467Z,-0.17
2022-12-19T20:19:01.953Z,-0.08
2022-12-19T20:22:08.532Z,-0.05
2022-12-19T20:25:18.140Z,-0.12
2022-12-19T20:28:23.758Z,-0.11
2022-12-19T20:31:31.479Z,-0.09
2022-12-19T20:34:37.602Z,-0.15
2022-12-19T20:37:43.849Z,-0.19
2022-12-19T20:40:55.989Z,-0.17
2022-12-19T20:44:02.454Z,-0.17
2022-12-19T20:47:08.288Z,-0.22
2022-12-19T20:50:16.326Z,-0.21
2022-12-19T20:53:21.793Z,-0.24
2022-12-19T20:56:30.711Z,-0.25
2022-12-19T20:59:36.466Z,-0.24
2022-12-19T21:03:24.980Z,-0.28
2022-12-19T21:06:10.912Z,-0.32
2022-12-19T21:09:17.838Z,-0.28
2022-12-19T21:12:25.894Z,-0.28
2022-12-19T21:15:34.387Z,-0.31
2022-12-19T21:18:41.960Z,-0.31
2022-12-19T21:21:48.500Z,-0.28
2022-12-19T21:24:53.967Z,-0.22
2022-12-19T21:28:02.826Z,-0.26
2022-12-19T21:31:15.181Z,-0.29
2022-12-19T21:34:21.780Z,-0.19
2022-12-19T21:37:37.058Z,-0.13
2022-12-19T21:40:46.252Z,-0.14
2022-12-19T21:43:56.892Z,-0.12
2022-12-19T21:47:04.024Z,-0.11
2022-12-19T21:50:14.661Z,-0.10
2022-12-19T21:53:22.675Z,-0.06
2022-12-19T21:56:31.157Z,-0.05
2022-12-19T21:59:40.369Z,0.01
2022-12-19T22:03:12.719Z,-0.07
2022-12-19T22:06:27.634Z,-0.04
2022-12-19T22:09:34.515Z,-0.02
2022-12-19T22:12:40.812Z,-0.04
2022-12-19T22:15:49.223Z,-0.05
2022-12-19T22:18:56.729Z,-0.04
2022-12-19T22:22:02.429Z,-0.02
2022-12-19T22:25:10.520Z,-0.02
2022-12-19T22:28:16.122Z,0.07
2022-12-19T22:31:28.198Z,0.07
2022-12-19T22:34:33.782Z,0.13
2022-12-19T22:37:40.229Z,0.09
2022-12-19T22:40:45.758Z,0.17
2022-12-19T22:43:52.272Z,0.14
2022-12-19T22:47:04.169Z,0.15
2022-12-19T22:50:13.319Z,0.15
2022-12-19T22:53:19.269Z,0.12
2022-12-19T22:56:29.255Z,0.18
2022-12-19T22:59:35.108Z,0.09
2022-12-19T23:02:45.359Z,0.14
2022-12-19T23:05:52.186Z,0.11
2022-12-19T23:08:58.956Z,0.13
2022-12-19T23:12:04.499Z,0.15
2022-12-19T23:15:11.993Z,0.15
2022-12-19T23:18:20.791Z,0.22
2022-12-19T23:21:29.549Z,0.19
2022-12-19T23:24:35.222Z,0.25
2022-12-19T23:27:44.151Z,0.28
2022-12-19T23:30:49.930Z,0.30
2022-12-19T23:34:03.405Z,0.32
2022-12-19T23:37:11.267Z,0.35
2022-12-19T23:40:18.612Z,0.36
2022-12-19T23:43:24.181Z,0.37
2022-12-19T23:46:31.262Z,0.41
2022-12-19T23:49:39.622Z,0.35
2022-12-19T23:52:47.162Z,0.33
2022-12-19T23:55:52.996Z,0.33
2022-12-19T23:59:00.721Z,0.34
